Погода Вестфилдна неделю

Массачусетс, США

14 - 20 июня
  • 14июня
    Сегодня
    +16°
    +28°
    Облачно с прояснениями
    ВремяПогодаТемператураВлажностьДавлениеВетер, м/сВероятность осадков
    02:00Ясно и безоблачно+19°C71 %749 мм3.3 м/с2 %
    05:00Ясно и безоблачно+18°C79 %748 мм3.5 м/с2 %
    08:00Ясно и безоблачно+22°C72 %748 мм4.0 м/с2 %
    11:00Практически безоблачно+26°C53 %748 мм5.1 м/с12 %
    14:00Облачно с прояснениями+28°C46 %746 мм4.6 м/с9 %
    17:00Небольшая облачность, ливень+24°C99 %747 мм3.7 м/с72 %
    20:00Пасмурно, дожди с грозами+21°C99 %748 мм2.4 м/с83 %
    23:00Пасмурно, дожди с грозами+19°C99 %747 мм2.2 м/с74 %
  • 15июня
    Суббота
    +10°
    +25°
    Практически безоблачно
    ВремяПогодаТемператураВлажностьДавлениеВетер, м/сВероятность осадков
    02:00Пасмурно, дождь+18°C99 %747 мм1.6 м/с85 %
    05:00Пасмурно, ливень+17°C99 %746 мм1.6 м/с78 %
    08:00Небольшая облачность+19°C93 %748 мм2.8 м/с45 %
    11:00Практически безоблачно+21°C62 %748 мм5.2 м/с32 %
    14:00Практически безоблачно+24°C51 %748 мм4.2 м/с31 %
    17:00Ясно и безоблачно+24°C39 %748 мм5.8 м/с14 %
    20:00Ясно и безоблачно+20°C52 %750 мм4.6 м/с2 %
    23:00Ясно и безоблачно+15°C54 %752 мм3.9 м/с2 %
  • 16июня
    Воскресенье
    +13°
    +24°
    Ясно и безоблачно
    ВремяПогодаТемператураВлажностьДавлениеВетер, м/сВероятность осадков
    02:00Ясно и безоблачно+12°C62 %753 мм2.4 м/с2 %
    05:00Ясно и безоблачно+10°C69 %754 мм1.9 м/с2 %
    08:00Ясно и безоблачно+15°C65 %756 мм1.7 м/с2 %
    11:00Ясно и безоблачно+20°C44 %756 мм1.6 м/с2 %
    14:00Ясно и безоблачно+22°C37 %755 мм2.3 м/с2 %
    17:00Небольшая облачность+23°C39 %755 мм3.7 м/с2 %
    20:00Практически безоблачно+20°C71 %755 мм3.3 м/с2 %
    23:00Облачно с прояснениями+16°C78 %755 мм3.4 м/с2 %
  • 17июня
    Понедельник
    +17°
    +26°
    Практически безоблачно
    ВремяПогодаТемператураВлажностьДавлениеВетер, м/сВероятность осадков
    02:00Практически безоблачно+14°C82 %755 мм2.2 м/с2 %
    05:00Небольшая облачность+14°C81 %756 мм2.2 м/с3 %
    08:00Облачно с прояснениями+17°C72 %756 мм2.0 м/с11 %
    11:00Облачно с прояснениями+22°C52 %755 мм3.5 м/с8 %
    14:00Практически безоблачно+26°C42 %754 мм5.2 м/с16 %
    17:00Небольшая облачность+25°C50 %753 мм5.6 м/с12 %
    20:00Небольшая облачность+21°C60 %754 мм4.5 м/с11 %
    23:00Ясно и безоблачно+18°C72 %755 мм3.3 м/с12 %
Мы используем cookies
Соглашаюсь